createdAt,value
2023-01-11T00:03:35.729Z,0.90
2023-01-11T00:08:37.504Z,1.10
2023-01-11T00:13:39.219Z,1.20
2023-01-11T00:18:41.081Z,1.25
2023-01-11T00:23:42.824Z,1.35
2023-01-11T00:28:44.685Z,1.55
2023-01-11T00:33:46.476Z,1.00
2023-01-11T00:38:51.473Z,1.20
2023-01-11T00:44:11.883Z,1.13
2023-01-11T00:49:13.575Z,1.67
2023-01-11T00:54:15.348Z,1.20
2023-01-11T00:59:17.042Z,1.17
2023-01-11T01:04:18.743Z,1.13
2023-01-11T01:09:20.507Z,1.42
2023-01-11T01:14:29.803Z,1.30
2023-01-11T01:19:33.325Z,1.27
2023-01-11T01:24:35.225Z,1.17
2023-01-11T01:29:36.904Z,1.65
2023-01-11T01:34:38.653Z,1.48
2023-01-11T01:39:40.348Z,1.48
2023-01-11T01:45:07.338Z,1.33
2023-01-11T01:50:24.053Z,1.00
2023-01-11T01:55:31.149Z,1.33
2023-01-11T02:00:33.266Z,1.38
2023-01-11T02:05:35.176Z,1.30
2023-01-11T02:10:38.383Z,1.60
2023-01-11T02:15:40.327Z,1.25
2023-01-11T02:21:13.740Z,1.30
2023-01-11T02:27:01.435Z,1.27
2023-01-11T02:32:26.714Z,1.30
2023-01-11T02:38:07.695Z,1.30
2023-01-11T02:43:48.156Z,1.10
2023-01-11T02:49:12.321Z,1.27
2023-01-11T02:54:18.639Z,1.03
2023-01-11T02:59:28.023Z,1.00
2023-01-11T03:04:29.895Z,1.25
2023-01-11T03:10:06.727Z,1.15
2023-01-11T03:15:35.941Z,1.00
2023-01-11T03:20:46.067Z,1.08
2023-01-11T03:26:02.317Z,1.20
2023-01-11T03:31:22.681Z,0.95
2023-01-11T03:36:31.875Z,0.95
2023-01-11T03:41:38.443Z,1.10
2023-01-11T03:46:48.813Z,1.10
2023-01-11T03:51:52.621Z,0.95
2023-01-11T03:57:08.296Z,1.10
2023-01-11T04:02:26.621Z,1.40
2023-01-11T04:07:28.800Z,0.95
2023-01-11T04:12:30.557Z,0.95
2023-01-11T04:17:32.702Z,1.00
2023-01-11T04:22:34.443Z,1.65
2023-01-11T04:27:36.246Z,1.33
2023-01-11T04:32:37.940Z,1.08
2023-01-11T04:37:39.933Z,1.13
2023-01-11T04:42:41.641Z,0.90
2023-01-11T04:47:43.426Z,0.90
2023-01-11T04:52:45.155Z,1.30
2023-01-11T04:57:47.230Z,1.20
2023-01-11T05:02:48.928Z,1.20
2023-01-11T05:07:50.616Z,1.10
2023-01-11T05:12:52.346Z,1.10
2023-01-11T05:17:54.033Z,1.17
2023-01-11T05:22:55.739Z,0.98
2023-01-11T05:27:57.454Z,0.88
2023-01-11T05:32:59.184Z,0.63
2023-01-11T05:38:00.883Z,0.80
2023-01-11T05:43:02.788Z,0.65
2023-01-11T05:48:04.863Z,0.88
2023-01-11T05:53:07.380Z,0.77
2023-01-11T05:58:09.060Z,0.85
2023-01-11T06:03:10.831Z,0.70
2023-01-11T06:08:13.441Z,0.88
2023-01-11T06:13:27.496Z,1.00
2023-01-11T06:18:30.955Z,1.25
2023-01-11T06:23:34.487Z,1.00
2023-01-11T06:28:37.076Z,1.30
2023-01-11T06:33:39.747Z,1.08
2023-01-11T06:38:41.973Z,1.10
2023-01-11T06:43:43.729Z,1.10
2023-01-11T06:48:46.025Z,1.15
2023-01-11T06:53:47.750Z,0.77
2023-01-11T06:58:49.723Z,0.90
2023-01-11T07:03:51.450Z,1.10
2023-01-11T07:08:53.142Z,0.90
2023-01-11T07:13:54.846Z,0.80
2023-01-11T07:18:56.606Z,0.88
2023-01-11T07:23:58.330Z,1.00
2023-01-11T07:29:00.065Z,1.08
2023-01-11T07:34:02.247Z,0.90
2023-01-11T07:39:03.963Z,0.90
2023-01-11T07:44:05.685Z,1.13
2023-01-11T07:49:07.418Z,1.10
2023-01-11T07:54:09.106Z,0.93
2023-01-11T07:59:11.040Z,1.02
2023-01-11T08:04:14.128Z,0.82
2023-01-11T08:09:15.941Z,0.90
2023-01-11T08:14:36.732Z,0.70
2023-01-11T08:19:39.153Z,0.63
2023-01-11T08:24:40.907Z,0.40
2023-01-11T08:29:44.246Z,0.40
2023-01-11T08:34:45.987Z,0.50
2023-01-11T08:39:48.676Z,0.45
2023-01-11T08:44:50.396Z,0.50
2023-01-11T08:49:52.120Z,0.40
2023-01-11T08:54:53.896Z,0.70
2023-01-11T08:59:55.877Z,0.65
2023-01-11T09:04:57.589Z,0.80
2023-01-11T09:09:59.301Z,0.50
2023-01-11T09:15:01.020Z,0.50
2023-01-11T09:20:02.751Z,0.40
2023-01-11T09:25:05.433Z,0.75
2023-01-11T09:30:07.869Z,0.40
2023-01-11T09:35:10.169Z,0.50
2023-01-11T09:40:30.141Z,0.60
2023-01-11T09:45:32.864Z,0.43
2023-01-11T09:50:40.027Z,0.50
2023-01-11T09:55:49.551Z,0.50
2023-01-11T10:00:55.651Z,0.50
2023-01-11T10:06:14.819Z,0.70
2023-01-11T10:18:27.592Z,0.60
2023-01-11T10:23:11.156Z,0.70
2023-01-11T10:28:31.175Z,0.70
2023-01-11T10:34:01.336Z,0.63
2023-01-11T10:39:50.462Z,0.52
2023-01-11T10:45:01.953Z,0.70
2023-01-11T10:50:26.456Z,0.40
2023-01-11T10:55:47.055Z,0.70
2023-01-11T11:01:26.998Z,0.77
2023-01-11T11:06:39.627Z,0.95
2023-01-11T11:11:53.041Z,2.03
2023-01-11T11:17:09.586Z,1.27
2023-01-11T11:22:11.893Z,1.30
2023-01-11T11:27:39.936Z,1.65
2023-01-11T11:32:51.462Z,1.83
2023-01-11T11:37:54.626Z,2.38
2023-01-11T11:43:18.880Z,2.70
2023-01-11T11:48:21.291Z,1.00
2023-01-11T11:53:43.213Z,1.20
2023-01-11T11:58:45.849Z,2.25
2023-01-11T12:03:48.603Z,2.67
2023-01-11T12:08:50.780Z,1.20
2023-01-11T12:14:31.475Z,2.00
2023-01-11T12:19:45.216Z,3.00
2023-01-11T12:24:49.047Z,3.10
2023-01-11T12:30:03.172Z,1.60
2023-01-11T12:35:43.949Z,2.50
2023-01-11T12:41:42.840Z,2.47
2023-01-11T12:47:18.852Z,2.55
2023-01-11T12:52:40.886Z,1.35
2023-01-11T12:58:08.504Z,3.00
2023-01-11T13:03:44.578Z,3.17
2023-01-11T13:08:54.968Z,1.52
2023-01-11T13:14:09.582Z,2.00
2023-01-11T13:19:34.876Z,2.00
2023-01-11T13:24:37.449Z,1.60
2023-01-11T13:29:43.875Z,0.80
2023-01-11T13:34:51.350Z,0.60
2023-01-11T13:40:25.137Z,0.93
2023-01-11T13:45:48.879Z,1.20
2023-01-11T13:50:53.732Z,1.00
2023-01-11T13:56:06.394Z,0.80
2023-01-11T14:01:12.710Z,0.77
2023-01-11T14:06:42.130Z,0.77
2023-01-11T14:11:54.179Z,0.75
2023-01-11T14:16:58.680Z,0.75
2023-01-11T14:22:44.775Z,2.40
2023-01-11T14:28:16.504Z,1.38
2023-01-11T14:33:43.311Z,2.20
2023-01-11T14:38:56.887Z,3.38
2023-01-11T14:44:14.025Z,1.45
2023-01-11T14:49:49.641Z,2.47
2023-01-11T14:54:53.407Z,3.38
2023-01-11T14:59:55.438Z,5.00
2023-01-11T15:04:57.160Z,2.67
2023-01-11T15:10:04.274Z,2.85
2023-01-11T15:15:21.030Z,1.70
2023-01-11T15:20:24.777Z,1.60
2023-01-11T15:25:33.843Z,1.77
2023-01-11T15:30:38.666Z,1.60
2023-01-11T15:35:40.536Z,2.30
2023-01-11T15:40:46.370Z,0.98
2023-01-11T15:46:18.664Z,0.90
2023-01-11T15:51:36.071Z,1.00
2023-01-11T15:57:12.253Z,0.90
2023-01-11T16:02:13.982Z,0.80
2023-01-11T16:07:27.444Z,0.90
2023-01-11T16:12:48.260Z,1.05
2023-01-11T16:17:51.283Z,0.98
2023-01-11T16:23:01.059Z,1.00
2023-01-11T16:28:04.867Z,1.08
2023-01-11T16:33:26.968Z,1.45
2023-01-11T16:38:29.459Z,1.42
2023-01-11T16:43:35.604Z,1.92
2023-01-11T16:48:37.314Z,2.40
2023-01-11T16:53:41.984Z,1.75
2023-01-11T16:58:44.164Z,1.65
2023-01-11T17:03:51.485Z,1.75
2023-01-11T17:08:57.092Z,1.88
2023-01-11T17:14:08.158Z,2.35
2023-01-11T17:19:18.689Z,2.55
2023-01-11T17:24:26.926Z,3.80
2023-01-11T17:29:40.843Z,4.35
2023-01-11T17:34:43.408Z,3.47
2023-01-11T17:39:49.765Z,2.28
2023-01-11T17:45:12.003Z,2.55
2023-01-11T17:50:29.849Z,3.90
2023-01-11T17:55:32.029Z,2.80
2023-01-11T18:00:33.848Z,3.35
2023-01-11T18:05:35.808Z,2.40
2023-01-11T18:10:41.355Z,2.60
2023-01-11T18:15:47.309Z,3.08
2023-01-11T18:20:49.097Z,3.50
2023-01-11T18:26:25.804Z,5.90
2023-01-11T18:31:27.608Z,4.28
2023-01-11T18:36:30.195Z,3.92
2023-01-11T18:41:50.347Z,3.92
2023-01-11T18:46:52.114Z,3.17
2023-01-11T18:51:54.965Z,3.65
2023-01-11T18:56:56.741Z,2.50
2023-01-11T19:02:17.146Z,2.60
2023-01-11T19:07:19.515Z,3.30
2023-01-11T19:12:21.870Z,3.03
2023-01-11T19:17:23.608Z,3.13
2023-01-11T19:22:26.750Z,1.73
2023-01-11T19:27:28.892Z,1.90
2023-01-11T19:32:30.671Z,2.42
2023-01-11T19:37:34.043Z,1.80
2023-01-11T19:42:36.749Z,2.80
2023-01-11T19:47:39.613Z,3.00
2023-01-11T19:52:41.437Z,3.20
2023-01-11T19:57:43.204Z,4.78
2023-01-11T20:02:45.033Z,3.80
2023-01-11T20:07:46.980Z,4.30
2023-01-11T20:12:48.770Z,3.08
2023-01-11T20:17:50.522Z,2.42
2023-01-11T20:22:52.237Z,2.22
2023-01-11T20:27:53.992Z,3.10
2023-01-11T20:32:55.756Z,3.00
2023-01-11T20:37:58.517Z,2.53
2023-01-11T20:43:00.252Z,2.08
2023-01-11T20:48:02.190Z,2.30
2023-01-11T20:53:04.157Z,1.80
2023-01-11T20:58:05.887Z,1.90
2023-01-11T21:03:07.712Z,3.15
2023-01-11T21:08:09.551Z,2.00
2023-01-11T21:13:11.248Z,2.45
2023-01-11T21:18:13.057Z,1.80
2023-01-11T21:23:16.559Z,1.38
2023-01-11T21:28:18.298Z,1.63
2023-01-11T21:33:20.448Z,1.75
2023-01-11T21:38:22.364Z,1.90
2023-01-11T21:43:24.089Z,1.92
2023-01-11T21:48:26.002Z,2.55
2023-01-11T21:53:32.774Z,1.60
2023-01-11T21:58:35.265Z,1.92
2023-01-11T22:03:37.232Z,2.20
2023-01-11T22:08:39.957Z,1.70
2023-01-11T22:13:42.585Z,1.90
2023-01-11T22:18:45.163Z,1.70
2023-01-11T22:23:47.519Z,2.40
2023-01-11T22:29:11.323Z,2.50
2023-01-11T22:34:13.954Z,2.40
2023-01-11T22:39:16.837Z,3.80
2023-01-11T22:44:18.695Z,2.88
2023-01-11T22:49:20.536Z,2.83
2023-01-11T22:54:23.092Z,2.50
2023-01-11T22:59:25.696Z,1.95
2023-01-11T23:04:27.495Z,2.50
2023-01-11T23:09:29.330Z,2.75
2023-01-11T23:14:33.032Z,2.92
2023-01-11T23:19:37.172Z,3.05
2023-01-11T23:24:39.817Z,2.45
2023-01-11T23:29:41.579Z,1.83
2023-01-11T23:34:43.280Z,1.95
2023-01-11T23:39:45.035Z,2.00
2023-01-11T23:44:47.016Z,1.90
2023-01-11T23:49:53.477Z,1.95
2023-01-11T23:54:55.546Z,1.95
2023-01-11T23:59:57.336Z,2.00
